sensor_id;sensor_type;location;lat;lon;timestamp;pressure;altitude;pressure_sealevel;temperature;humidity
3590;BME280;1809;48.470;9.226;2023-03-04T00:02:00;125613.34;;;-0.48;100.00
3590;BME280;1809;48.470;9.226;2023-03-04T00:04:26;125970.16;;;-0.40;100.00
3590;BME280;1809;48.470;9.226;2023-03-04T00:06:51;126336.63;;;-0.27;100.00
3590;BME280;1809;48.470;9.226;2023-03-04T00:09:16;125989.06;;;-0.31;100.00
3590;BME280;1809;48.470;9.226;2023-03-04T00:11:42;125995.38;;;-0.28;100.00
3590;BME280;1809;48.470;9.226;2023-03-04T00:14:07;125654.19;;;-0.29;100.00
3590;BME280;1809;48.470;9.226;2023-03-04T00:16:32;125290.06;;;-0.41;100.00
3590;BME280;1809;48.470;9.226;2023-03-04T00:18:58;125292.13;;;-0.40;100.00
3590;BME280;1809;48.470;9.226;2023-03-04T00:21:23;124934.44;;;-0.49;100.00
3590;BME280;1809;48.470;9.226;2023-03-04T00:23:49;124587.28;;;-0.53;100.00
3590;BME280;1809;48.470;9.226;2023-03-04T00:26:15;125274.41;;;-0.48;100.00
3590;BME280;1809;48.470;9.226;2023-03-04T00:28:41;125271.28;;;-0.50;100.00
3590;BME280;1809;48.470;9.226;2023-03-04T00:31:07;125278.56;;;-0.46;100.00
3590;BME280;1809;48.470;9.226;2023-03-04T00:33:33;125623.81;;;-0.43;100.00
3590;BME280;1809;48.470;9.226;2023-03-04T00:35:58;125619.63;;;-0.45;100.00
3590;BME280;1809;48.470;9.226;2023-03-04T00:38:26;125616.50;;;-0.47;100.00
3590;BME280;1809;48.470;9.226;2023-03-04T00:40:51;125618.56;;;-0.46;100.00
3590;BME280;1809;48.470;9.226;2023-03-04T00:43:17;125958.63;;;-0.45;100.00
3590;BME280;1809;48.470;9.226;2023-03-04T00:45:42;125963.88;;;-0.43;100.00
3590;BME280;1809;48.470;9.226;2023-03-04T00:48:08;125953.38;;;-0.48;100.00
3590;BME280;1809;48.470;9.226;2023-03-04T00:50:33;125943.91;;;-0.52;100.00
3590;BME280;1809;48.470;9.226;2023-03-04T00:52:58;125930.28;;;-0.59;100.00
3590;BME280;1809;48.470;9.226;2023-03-04T00:55:24;126280.84;;;-0.53;100.00
3590;BME280;1809;48.470;9.226;2023-03-04T00:57:49;125926.09;;;-0.61;100.00
3590;BME280;1809;48.470;9.226;2023-03-04T01:00:15;126616.66;;;-0.55;100.00
3590;BME280;1809;48.470;9.226;2023-03-04T01:02:41;126611.41;;;-0.58;100.00
3590;BME280;1809;48.470;9.226;2023-03-04T01:05:07;126612.47;;;-0.57;100.00
3590;BME280;1809;48.470;9.226;2023-03-04T01:07:32;126599.81;;;-0.63;100.00
3590;BME280;1809;48.470;9.226;2023-03-04T01:09:58;126594.53;;;-0.66;100.00
3590;BME280;1809;48.470;9.226;2023-03-04T01:12:23;126589.22;;;-0.68;100.00
3590;BME280;1809;48.470;9.226;2023-03-04T01:14:48;126226.09;;;-0.80;100.00
3590;BME280;1809;48.470;9.226;2023-03-04T01:17:14;126218.72;;;-0.83;100.00
3590;BME280;1809;48.470;9.226;2023-03-04T01:19:39;126211.34;;;-0.87;100.00
3590;BME280;1809;48.470;9.226;2023-03-04T01:22:04;126202.97;;;-0.91;100.00
3590;BME280;1809;48.470;9.226;2023-03-04T01:24:30;126535.44;;;-0.94;100.00
3590;BME280;1809;48.470;9.226;2023-03-04T01:26:55;126187.16;;;-0.98;100.00
3590;BME280;1809;48.470;9.226;2023-03-04T01:29:21;126165.09;;;-1.09;100.00
3590;BME280;1809;48.470;9.226;2023-03-04T01:31:46;125810.66;;;-1.17;100.00
3590;BME280;1809;48.470;9.226;2023-03-04T01:34:12;126156.66;;;-1.13;100.00
3590;BME280;1809;48.470;9.226;2023-03-04T01:36:37;127195.03;;;-1.02;100.00
3590;BME280;1809;48.470;9.226;2023-03-04T01:39:03;127196.09;;;-1.02;100.00
3590;BME280;1809;48.470;9.226;2023-03-04T01:41:29;127532.84;;;-1.03;100.00
3590;BME280;1809;48.470;9.226;2023-03-04T01:43:55;127173.84;;;-1.13;100.00
3590;BME280;1809;48.470;9.226;2023-03-04T01:46:22;127510.50;;;-1.14;100.00
3590;BME280;1809;48.470;9.226;2023-03-04T01:48:47;127159.00;;;-1.20;100.00
3590;BME280;1809;48.470;9.226;2023-03-04T01:51:15;127499.88;;;-1.19;100.00
3590;BME280;1809;48.470;9.226;2023-03-04T01:53:42;127837.56;;;-1.19;100.00
3590;BME280;1809;48.470;9.226;2023-03-04T01:56:40;127816.22;;;-1.29;100.00
3590;BME280;1809;48.470;9.226;2023-03-04T02:01:32;128516.31;;;-1.19;100.00
3590;BME280;1809;48.470;9.226;2023-03-04T02:03:57;128520.56;;;-1.17;100.00
3590;BME280;1809;48.470;9.226;2023-03-04T02:06:23;128864.81;;;-1.14;100.00
3590;BME280;1809;48.470;9.226;2023-03-04T02:08:48;128524.84;;;-1.15;100.00
3590;BME280;1809;48.470;9.226;2023-03-04T02:11:13;128520.56;;;-1.17;100.00
3590;BME280;1809;48.470;9.226;2023-03-04T02:13:39;128171.03;;;-1.22;100.00
3590;BME280;1809;48.470;9.226;2023-03-04T02:16:04;127820.50;;;-1.27;100.00
3590;BME280;1809;48.470;9.226;2023-03-04T02:18:30;127816.22;;;-1.29;100.00
3590;BME280;1809;48.470;9.226;2023-03-04T02:23:50;127795.97;;;-1.39;100.00
3590;BME280;1809;48.470;9.226;2023-03-04T02:26:26;127442.41;;;-1.46;100.00
3590;BME280;1809;48.470;9.226;2023-03-04T02:28:54;127438.19;;;-1.48;100.00
3590;BME280;1809;48.470;9.226;2023-03-04T02:31:38;128130.41;;;-1.41;100.00
3590;BME280;1809;48.470;9.226;2023-03-04T02:34:28;127775.72;;;-1.48;100.00
3590;BME280;1809;48.470;9.226;2023-03-04T02:36:54;128119.69;;;-1.46;100.00
3590;BME280;1809;48.470;9.226;2023-03-04T02:39:21;128474.47;;;-1.38;100.00
3590;BME280;1809;48.470;9.226;2023-03-04T02:41:49;128466.97;;;-1.42;100.00
3590;BME280;1809;48.470;9.226;2023-03-04T02:44:21;129161.69;;;-1.34;100.00
3590;BME280;1809;48.470;9.226;2023-03-04T02:46:47;129154.19;;;-1.37;100.00
3590;BME280;1809;48.470;9.226;2023-03-04T02:49:13;128802.50;;;-1.43;100.00
3590;BME280;1809;48.470;9.226;2023-03-04T02:51:39;129147.72;;;-1.40;100.00
3590;BME280;1809;48.470;9.226;2023-03-04T02:54:14;129499.50;;;-1.34;100.00
3590;BME280;1809;48.470;9.226;2023-03-04T02:56:44;129135.84;;;-1.46;100.00
3590;BME280;1809;48.470;9.226;2023-03-04T02:59:09;129491.94;;;-1.38;100.00
3590;BME280;1809;48.470;9.226;2023-03-04T03:01:34;129496.25;;;-1.36;100.00
3590;BME280;1809;48.470;9.226;2023-03-04T03:04:00;129500.56;;;-1.34;100.00
3590;BME280;1809;48.470;9.226;2023-03-04T03:06:25;129510.28;;;-1.29;100.00
3590;BME280;1809;48.470;9.226;2023-03-04T03:08:50;129160.66;;;-1.34;100.00
3590;BME280;1809;48.470;9.226;2023-03-04T03:11:16;128812.16;;;-1.39;100.00
3590;BME280;1809;48.470;9.226;2023-03-04T03:13:41;128453.03;;;-1.48;100.00
3590;BME280;1809;48.470;9.226;2023-03-04T03:16:06;128464.81;;;-1.43;100.00
3590;BME280;1809;48.470;9.226;2023-03-04T03:18:31;128462.69;;;-1.44;100.00
3590;BME280;1809;48.470;9.226;2023-03-04T03:20:57;128471.22;;;-1.40;100.00
3590;BME280;1809;48.470;9.226;2023-03-04T03:23:22;127772.53;;;-1.50;100.00
3590;BME280;1809;48.470;9.226;2023-03-04T03:25:48;127415.81;;;-1.58;100.00
3590;BME280;1809;48.470;9.226;2023-03-04T03:28:13;127419.03;;;-1.57;100.00
3590;BME280;1809;48.470;9.226;2023-03-04T03:30:38;127416.91;;;-1.58;100.00
3590;BME280;1809;48.470;9.226;2023-03-04T03:33:03;127068.88;;;-1.63;100.00
3590;BME280;1809;48.470;9.226;2023-03-04T03:35:29;127077.31;;;-1.58;100.00
3590;BME280;1809;48.470;9.226;2023-03-04T03:37:54;126729.34;;;-1.63;100.00
3590;BME280;1809;48.470;9.226;2023-03-04T03:40:19;126725.13;;;-1.65;100.00
3590;BME280;1809;48.470;9.226;2023-03-04T03:42:45;126729.34;;;-1.63;100.00
3590;BME280;1809;48.470;9.226;2023-03-04T03:45:10;126737.81;;;-1.59;100.00
3590;BME280;1809;48.470;9.226;2023-03-04T03:47:36;126729.34;;;-1.63;100.00
3590;BME280;1809;48.470;9.226;2023-03-04T03:50:02;126731.47;;;-1.62;100.00
3590;BME280;1809;48.470;9.226;2023-03-04T03:52:28;126739.91;;;-1.58;100.00
3590;BME280;1809;48.470;9.226;2023-03-04T03:54:53;127084.75;;;-1.55;100.00
3590;BME280;1809;48.470;9.226;2023-03-04T03:57:18;126737.81;;;-1.59;100.00
3590;BME280;1809;48.470;9.226;2023-03-04T03:59:44;126729.34;;;-1.63;100.00
3590;BME280;1809;48.470;9.226;2023-03-04T04:02:09;126728.28;;;-1.64;100.00
3590;BME280;1809;48.470;9.226;2023-03-04T04:04:34;126725.13;;;-1.65;100.00
3590;BME280;1809;48.470;9.226;2023-03-04T04:07:00;126361.38;;;-1.77;100.00
3590;BME280;1809;48.470;9.226;2023-03-04T04:09:25;126363.50;;;-1.76;100.00
3590;BME280;1809;48.470;9.226;2023-03-04T04:11:50;126355.03;;;-1.80;100.00
3590;BME280;1809;48.470;9.226;2023-03-04T04:14:16;126703.97;;;-1.75;100.00
3590;BME280;1809;48.470;9.226;2023-03-04T04:16:41;127050.81;;;-1.71;100.00
3590;BME280;1809;48.470;9.226;2023-03-04T04:19:07;127043.41;;;-1.75;100.00
3590;BME280;1809;48.470;9.226;2023-03-04T04:21:34;127044.44;;;-1.74;100.00
3590;BME280;1809;48.470;9.226;2023-03-04T04:23:59;126693.38;;;-1.80;100.00
3590;BME280;1809;48.470;9.226;2023-03-04T04:26:24;126676.47;;;-1.88;100.00
3590;BME280;1809;48.470;9.226;2023-03-04T04:28:50;126327.66;;;-1.93;100.00
3590;BME280;1809;48.470;9.226;2023-03-04T04:31:15;126323.41;;;-1.95;100.00
3590;BME280;1809;48.470;9.226;2023-03-04T04:33:40;126672.25;;;-1.90;100.00
3590;BME280;1809;48.470;9.226;2023-03-04T04:36:07;127016.91;;;-1.87;100.00
3590;BME280;1809;48.470;9.226;2023-03-04T04:38:33;127009.50;;;-1.91;100.00
3590;BME280;1809;48.470;9.226;2023-03-04T04:40:58;127015.84;;;-1.88;100.00
3590;BME280;1809;48.470;9.226;2023-03-04T04:43:24;127014.78;;;-1.88;100.00
3590;BME280;1809;48.470;9.226;2023-03-04T04:45:50;127020.06;;;-1.86;100.00
3590;BME280;1809;48.470;9.226;2023-03-04T04:48:15;126678.59;;;-1.87;100.00
3590;BME280;1809;48.470;9.226;2023-03-04T04:50:41;126674.34;;;-1.89;100.00
3590;BME280;1809;48.470;9.226;2023-03-04T04:53:06;126676.47;;;-1.88;100.00
3590;BME280;1809;48.470;9.226;2023-03-04T04:55:33;126316.03;;;-1.99;100.00
3590;BME280;1809;48.470;9.226;2023-03-04T04:57:58;125621.88;;;-2.07;100.00
3590;BME280;1809;48.470;9.226;2023-03-04T05:00:23;125267.09;;;-2.15;100.00
3590;BME280;1809;48.470;9.226;2023-03-04T05:02:49;125267.09;;;-2.15;100.00
3590;BME280;1809;48.470;9.226;2023-03-04T05:05:14;125608.25;;;-2.14;100.00
3590;BME280;1809;48.470;9.226;2023-03-04T05:07:39;125596.72;;;-2.20;100.00
3590;BME280;1809;48.470;9.226;2023-03-04T05:10:05;125601.97;;;-2.17;100.00
3590;BME280;1809;48.470;9.226;2023-03-04T05:12:30;125941.06;;;-2.17;100.00
3590;BME280;1809;48.470;9.226;2023-03-04T05:14:56;125947.38;;;-2.13;100.00
3590;BME280;1809;48.470;9.226;2023-03-04T05:17:21;125943.19;;;-2.15;100.00
3590;BME280;1809;48.470;9.226;2023-03-04T05:19:46;125936.88;;;-2.19;100.00
3590;BME280;1809;48.470;9.226;2023-03-04T05:22:12;125934.75;;;-2.20;100.00
3590;BME280;1809;48.470;9.226;2023-03-04T05:24:37;126285.47;;;-2.13;100.00
3590;BME280;1809;48.470;9.226;2023-03-04T05:27:02;126284.41;;;-2.14;100.00
3590;BME280;1809;48.470;9.226;2023-03-04T05:29:28;125937.94;;;-2.18;100.00
3590;BME280;1809;48.470;9.226;2023-03-04T05:31:53;125587.28;;;-2.24;100.00
3590;BME280;1809;48.470;9.226;2023-03-04T05:34:18;125588.34;;;-2.24;100.00
3590;BME280;1809;48.470;9.226;2023-03-04T05:36:44;125246.19;;;-2.26;100.00
3590;BME280;1809;48.470;9.226;2023-03-04T05:39:09;125594.63;;;-2.21;100.00
3590;BME280;1809;48.470;9.226;2023-03-04T05:41:34;125239.91;;;-2.29;100.00
3590;BME280;1809;48.470;9.226;2023-03-04T05:44:00;125254.56;;;-2.22;100.00
3590;BME280;1809;48.470;9.226;2023-03-04T05:46:26;125254.56;;;-2.22;100.00
3590;BME280;1809;48.470;9.226;2023-03-04T05:48:52;124557.88;;;-2.32;100.00
3590;BME280;1809;48.470;9.226;2023-03-04T05:51:18;124209.69;;;-2.37;100.00
3590;BME280;1809;48.470;9.226;2023-03-04T05:53:43;123517.66;;;-2.45;100.00
3590;BME280;1809;48.470;9.226;2023-03-04T05:56:12;123164.59;;;-2.52;100.00
3590;BME280;1809;48.470;9.226;2023-03-04T05:58:37;122817.78;;;-2.57;100.00
3590;BME280;1809;48.470;9.226;2023-03-04T06:01:03;123169.75;;;-2.50;100.00
3590;BME280;1809;48.470;9.226;2023-03-04T06:03:28;123156.38;;;-2.56;100.00
3590;BME280;1809;48.470;9.226;2023-03-04T06:05:54;122813.69;;;-2.59;100.00
3590;BME280;1809;48.470;9.226;2023-03-04T06:08:19;123161.50;;;-2.54;100.00
3590;BME280;1809;48.470;9.226;2023-03-04T06:10:45;123511.47;;;-2.48;100.00
3590;BME280;1809;48.470;9.226;2023-03-04T06:13:11;123528.00;;;-2.40;100.00
3590;BME280;1809;48.470;9.226;2023-03-04T06:15:37;123516.63;;;-2.45;100.00
3590;BME280;1809;48.470;9.226;2023-03-04T06:18:04;123869.84;;;-2.38;100.00
3590;BME280;1809;48.470;9.226;2023-03-04T06:20:29;123878.13;;;-2.34;100.00
3590;BME280;1809;48.470;9.226;2023-03-04T06:22:55;124224.19;;;-2.30;100.00
3590;BME280;1809;48.470;9.226;2023-03-04T06:25:20;123894.66;;;-2.26;100.00
3590;BME280;1809;48.470;9.226;2023-03-04T06:27:45;124260.50;;;-2.12;100.00
3590;BME280;1809;48.470;9.226;2023-03-04T06:30:11;124614.00;;;-2.04;100.00
3590;BME280;1809;48.470;9.226;2023-03-04T06:32:36;124273.94;;;-2.05;100.00
3590;BME280;1809;48.470;9.226;2023-03-04T06:35:02;124290.53;;;-1.97;100.00
3590;BME280;1809;48.470;9.226;2023-03-04T06:37:27;123957.69;;;-1.95;100.00
3590;BME280;1809;48.470;9.226;2023-03-04T06:39:53;123635.22;;;-1.87;100.00
3590;BME280;1809;48.470;9.226;2023-03-04T06:42:18;123653.75;;;-1.78;100.00
3590;BME280;1809;48.470;9.226;2023-03-04T06:44:44;123321.88;;;-1.75;100.00
3590;BME280;1809;48.470;9.226;2023-03-04T06:47:09;123336.25;;;-1.68;100.00
3590;BME280;1809;48.470;9.226;2023-03-04T06:49:35;123014.63;;;-1.60;100.00
3590;BME280;1809;48.470;9.226;2023-03-04T06:52:00;122683.69;;;-1.56;100.00
3590;BME280;1809;48.470;9.226;2023-03-04T06:54:25;122018.75;;;-1.51;100.00
3590;BME280;1809;48.470;9.226;2023-03-04T06:56:51;121697.94;;;-1.42;100.00
3590;BME280;1809;48.470;9.226;2023-03-04T06:59:16;120682.88;;;-1.43;100.00
3590;BME280;1809;48.470;9.226;2023-03-04T07:01:42;120033.00;;;-1.30;100.00
3590;BME280;1809;48.470;9.226;2023-03-04T07:04:07;119712.97;;;-1.21;100.00
3590;BME280;1809;48.470;9.226;2023-03-04T07:06:32;119048.94;;;-1.15;100.00
3590;BME280;1809;48.470;9.226;2023-03-04T07:08:58;118048.94;;;-1.08;100.00
3590;BME280;1809;48.470;9.226;2023-03-04T07:11:23;117050.91;;;-0.99;100.00
3590;BME280;1809;48.470;9.226;2023-03-04T07:13:49;115368.72;;;-0.96;100.00
3590;BME280;1809;48.470;9.226;2023-03-04T07:16:18;114032.34;;;-0.88;100.00
3590;BME280;1809;48.470;9.226;2023-03-04T07:18:44;111667.84;;;-0.89;100.00
3590;BME280;1809;48.470;9.226;2023-03-04T07:21:11;110008.66;;;-0.74;100.00
3590;BME280;1809;48.470;9.226;2023-03-04T07:23:37;106970.53;;;-0.76;100.00
3590;BME280;1809;48.470;9.226;2023-03-04T07:26:03;103253.28;;;-0.83;100.00
3590;BME280;1809;48.470;9.226;2023-03-04T07:28:29;100894.38;;;-0.85;100.00
3590;BME280;1809;48.470;9.226;2023-03-04T07:30:54;99565.63;;;-0.75;100.00
3590;BME280;1809;48.470;9.226;2023-03-04T07:33:19;98236.13;;;-0.66;100.00
3590;BME280;1809;48.470;9.226;2023-03-04T07:35:45;96231.22;;;-0.58;100.00
3590;BME280;1809;48.470;9.226;2023-03-04T07:38:10;96271.06;;;-0.33;100.00
3590;BME280;1809;48.470;9.226;2023-03-04T07:40:36;95967.41;;;-0.12;100.00
3590;BME280;1809;48.470;9.226;2023-03-04T07:43:01;94990.09;;;0.08;100.00
3590;BME280;1809;48.470;9.226;2023-03-04T07:45:27;94352.63;;;0.31;100.00
3590;BME280;1809;48.470;9.226;2023-03-04T07:47:52;91003.91;;;0.40;100.00
3590;BME280;1809;48.470;9.226;2023-03-04T07:50:18;83956.91;;;0.43;100.00
3590;BME280;1809;48.470;9.226;2023-03-04T07:52:46;76262.25;;;0.52;100.00
3590;BME280;1809;48.470;9.226;2023-03-04T07:55:14;67903.25;;;0.52;100.00
3590;BME280;1809;48.470;9.226;2023-03-04T07:57:45;60244.84;;;0.66;100.00
3590;BME280;1809;48.470;9.226;2023-03-04T08:00:13;52256.63;;;0.66;100.00
3590;BME280;1809;48.470;9.226;2023-03-04T08:02:39;48621.22;;;0.91;100.00
3590;BME280;1809;48.470;9.226;2023-03-04T08:05:05;43985.75;;;1.09;100.00
3590;BME280;1809;48.470;9.226;2023-03-04T08:07:31;39364.09;;;1.44;100.00
3590;BME280;1809;48.470;9.226;2023-03-04T08:09:56;21495.13;;;1.17;100.00
3590;BME280;1809;48.470;9.226;2023-03-04T08:12:22;14907.34;;;1.16;100.00
3590;BME280;1809;48.470;9.226;2023-03-04T08:14:49;14586.53;;;1.52;100.00
3590;BME280;1809;48.470;9.226;2023-03-04T08:17:14;9983.53;;;1.71;100.00
3590;BME280;1809;48.470;9.226;2023-03-04T08:19:40;-1178.59;;;1.73;100.00
3590;BME280;1809;48.470;9.226;2023-03-04T08:22:05;-11771.69;;;1.95;100.00
3590;BME280;1809;48.470;9.226;2023-03-04T08:24:31;-16221.97;;;1.90;100.00
3590;BME280;1809;48.470;9.226;2023-03-04T08:26:56;-16220.84;;;1.86;100.00
3590;BME280;1809;48.470;9.226;2023-03-04T08:29:23;-16218.88;;;1.79;100.00
3590;BME280;1809;48.470;9.226;2023-03-04T08:31:50;-16227.06;;;2.08;100.00
3590;BME280;1809;48.470;9.226;2023-03-04T08:34:17;-16229.59;;;2.17;100.00
3590;BME280;1809;48.470;9.226;2023-03-04T08:36:43;-16227.19;;;2.09;100.00
3590;BME280;1809;48.470;9.226;2023-03-04T08:39:11;-16223.25;;;1.95;100.00
3590;BME280;1809;48.470;9.226;2023-03-04T08:41:37;-16225.66;;;2.03;100.00
3590;BME280;1809;48.470;9.226;2023-03-04T08:44:03;-16221.13;;;1.87;100.00
3590;BME280;1809;48.470;9.226;2023-03-04T08:46:29;-16229.88;;;2.18;100.00
3590;BME280;1809;48.470;9.226;2023-03-04T08:48:54;-16234.09;;;2.34;100.00
3590;BME280;1809;48.470;9.226;2023-03-04T08:51:20;-16231.00;;;2.23;100.00
3590;BME280;1809;48.470;9.226;2023-03-04T08:53:45;-16237.63;;;2.46;100.00
3590;BME280;1809;48.470;9.226;2023-03-04T08:56:11;-16232.56;;;2.28;100.00
3590;BME280;1809;48.470;9.226;2023-03-04T08:58:37;-16238.19;;;2.48;100.00
3590;BME280;1809;48.470;9.226;2023-03-04T09:01:03;-16236.78;;;2.43;100.00
3590;BME280;1809;48.470;9.226;2023-03-04T09:03:30;-16228.75;;;2.14;100.00
3590;BME280;1809;48.470;9.226;2023-03-04T09:05:55;-16233.13;;;2.30;100.00
3590;BME280;1809;48.470;9.226;2023-03-04T09:08:21;-16232.97;;;2.30;100.00
3590;BME280;1809;48.470;9.226;2023-03-04T09:10:46;-16232.97;;;2.30;100.00
3590;BME280;1809;48.470;9.226;2023-03-04T09:13:12;-16232.28;;;2.27;100.00
3590;BME280;1809;48.470;9.226;2023-03-04T09:15:45;-16235.50;;;2.39;100.00
3590;BME280;1809;48.470;9.226;2023-03-04T09:18:11;-16244.66;;;2.71;100.00
3590;BME280;1809;48.470;9.226;2023-03-04T09:20:36;-16236.06;;;2.41;100.00
3590;BME280;1809;48.470;9.226;2023-03-04T09:23:01;-16237.63;;;2.46;100.00
3590;BME280;1809;48.470;9.226;2023-03-04T09:25:27;-16237.19;;;2.45;100.00
3590;BME280;1809;48.470;9.226;2023-03-04T09:27:52;-16231.44;;;2.24;100.00
3590;BME280;1809;48.470;9.226;2023-03-04T09:30:18;-16225.94;;;2.04;100.00
3590;BME280;1809;48.470;9.226;2023-03-04T09:32:43;-16226.50;;;2.06;100.00
3590;BME280;1809;48.470;9.226;2023-03-04T09:35:09;-16230.84;;;2.22;100.00
3590;BME280;1809;48.470;9.226;2023-03-04T09:37:35;-16228.75;;;2.14;100.00
3590;BME280;1809;48.470;9.226;2023-03-04T09:40:01;-16226.91;;;2.08;100.00
3590;BME280;1809;48.470;9.226;2023-03-04T09:42:36;-7903.84;;;1.94;100.00
3590;BME280;1809;48.470;9.226;2023-03-04T09:45:05;460.41;;;1.91;100.00
3590;BME280;1809;48.470;9.226;2023-03-04T09:47:33;2757.16;;;1.86;100.00
3590;BME280;1809;48.470;9.226;2023-03-04T09:50:07;6698.72;;;1.93;100.00
3590;BME280;1809;48.470;9.226;2023-03-04T09:52:36;7353.22;;;1.66;100.00
3590;BME280;1809;48.470;9.226;2023-03-04T09:55:38;9656.28;;;1.82;100.00
3590;BME280;1809;48.470;9.226;2023-03-04T09:58:28;10977.03;;;2.12;100.00
3590;BME280;1809;48.470;9.226;2023-03-04T10:01:12;1116.50;;;1.93;100.00
3590;BME280;1809;48.470;9.226;2023-03-04T10:03:46;-1508.25;;;2.22;100.00
3590;BME280;1809;48.470;9.226;2023-03-04T10:06:20;-8581.88;;;2.15;100.00
3590;BME280;1809;48.470;9.226;2023-03-04T10:08:57;-13935.81;;;2.15;100.00
3590;BME280;1809;48.470;9.226;2023-03-04T10:16:51;-7916.47;;;2.11;100.00
3590;BME280;1809;48.470;9.226;2023-03-04T10:19:20;5386.91;;;2.28;100.00
3590;BME280;1809;48.470;9.226;2023-03-04T10:21:49;-6749.59;;;2.05;100.00
3590;BME280;1809;48.470;9.226;2023-03-04T10:24:18;4071.84;;;2.17;100.00
3590;BME280;1809;48.470;9.226;2023-03-04T10:26:46;14600.81;;;2.16;100.00
3590;BME280;1809;48.470;9.226;2023-03-04T10:29:19;18234.50;;;2.40;100.00
3590;BME280;1809;48.470;9.226;2023-03-04T10:31:45;10650.34;;;2.28;100.00
3590;BME280;1809;48.470;9.226;2023-03-04T10:34:12;14602.41;;;2.24;100.00
3590;BME280;1809;48.470;9.226;2023-03-04T10:39:27;7029.69;;;2.16;100.00
3590;BME280;1809;48.470;9.226;2023-03-04T10:41:59;-8666.53;;;2.01;100.00
3590;BME280;1809;48.470;9.226;2023-03-04T10:44:26;-10824.38;;;2.08;100.00
3590;BME280;1809;48.470;9.226;2023-03-04T10:46:53;-14625.75;;;1.88;100.00
3590;BME280;1809;48.470;9.226;2023-03-04T10:49:20;-5109.47;;;1.76;100.00
3590;BME280;1809;48.470;9.226;2023-03-04T10:51:48;460.56;;;1.73;100.00
3590;BME280;1809;48.470;9.226;2023-03-04T10:54:41;7026.38;;;1.83;100.00
3590;BME280;1809;48.470;9.226;2023-03-04T10:57:20;6041.25;;;1.90;100.00
3590;BME280;1809;48.470;9.226;2023-03-04T10:59:57;4727.03;;;1.87;100.00
3590;BME280;1809;48.470;9.226;2023-03-04T11:02:32;1116.53;;;2.03;100.00
3590;BME280;1809;48.470;9.226;2023-03-04T11:05:18;-4458.00;;;2.13;100.00
3590;BME280;1809;48.470;9.226;2023-03-04T11:08:47;-10646.72;;;2.14;100.00
3590;BME280;1809;48.470;9.226;2023-03-04T11:10:39;-8536.34;;;2.18;100.00
3590;BME280;1809;48.470;9.226;2023-03-04T11:15:56;-11015.16;;;2.44;100.00
3590;BME280;1809;48.470;9.226;2023-03-04T11:18:43;-14519.06;;;2.41;100.00
3590;BME280;1809;48.470;9.226;2023-03-04T11:21:26;-14908.00;;;2.44;100.00
3590;BME280;1809;48.470;9.226;2023-03-04T11:23:59;-16234.38;;;2.35;100.00
3590;BME280;1809;48.470;9.226;2023-03-04T11:26:34;-16238.47;;;2.49;100.00
3590;BME280;1809;48.470;9.226;2023-03-04T11:29:09;-16249.72;;;2.90;100.00
3590;BME280;1809;48.470;9.226;2023-03-04T11:31:51;-16259.19;;;3.23;100.00
3590;BME280;1809;48.470;9.226;2023-03-04T11:37:20;-16265.66;;;3.47;100.00
3590;BME280;1809;48.470;9.226;2023-03-04T11:39:54;-16258.88;;;3.22;100.00
3590;BME280;1809;48.470;9.226;2023-03-04T11:42:44;-16256.22;;;3.13;100.00
3590;BME280;1809;48.470;9.226;2023-03-04T11:45:13;-16252.97;;;3.01;100.00
3590;BME280;1809;48.470;9.226;2023-03-04T11:50:42;-16249.31;;;2.88;100.00
3590;BME280;1809;48.470;9.226;2023-03-04T11:53:35;-16252.56;;;3.00;100.00
3590;BME280;1809;48.470;9.226;2023-03-04T12:01:58;-16262.56;;;3.36;100.00
3590;BME280;1809;48.470;9.226;2023-03-04T12:15:27;-16248.47;;;2.85;100.00
3590;BME280;1809;48.470;9.226;2023-03-04T12:21:01;-16251.28;;;2.95;100.00
3590;BME280;1809;48.470;9.226;2023-03-04T12:31:49;-16273.53;;;3.75;100.00
3590;BME280;1809;48.470;9.226;2023-03-04T12:34:32;-16266.06;;;3.48;100.00
3590;BME280;1809;48.470;9.226;2023-03-04T12:42:34;-16269.88;;;3.62;100.00
3590;BME280;1809;48.470;9.226;2023-03-04T12:48:31;-16282.25;;;4.06;100.00
3590;BME280;1809;48.470;9.226;2023-03-04T12:51:12;-16301.97;;;4.77;100.00
3590;BME280;1809;48.470;9.226;2023-03-04T12:54:08;-16310.13;;;5.06;100.00
3590;BME280;1809;48.470;9.226;2023-03-04T12:56:50;-16320.25;;;5.42;100.00
3590;BME280;1809;48.470;9.226;2023-03-04T12:59:19;-16318.56;;;5.36;100.00
3590;BME280;1809;48.470;9.226;2023-03-04T13:10:09;-16339.84;;;6.13;100.00
3590;BME280;1809;48.470;9.226;2023-03-04T13:12:47;-16337.84;;;6.06;100.00
3590;BME280;1809;48.470;9.226;2023-03-04T13:17:50;-16341.66;;;6.19;100.00
3590;BME280;1809;48.470;9.226;2023-03-04T13:25:28;-16350.38;;;6.51;100.00
3590;BME280;1809;48.470;9.226;2023-03-04T13:43:48;-16332.66;;;5.87;100.00
3590;BME280;1809;48.470;9.226;2023-03-04T13:51:36;-16343.78;;;6.27;100.00
3590;BME280;1809;48.470;9.226;2023-03-04T13:56:35;-16341.38;;;6.18;100.00
3590;BME280;1809;48.470;9.226;2023-03-04T13:59:12;-16345.59;;;6.33;100.00
3590;BME280;1809;48.470;9.226;2023-03-04T14:04:31;-16335.19;;;5.96;100.00
3590;BME280;1809;48.470;9.226;2023-03-04T14:06:59;-16335.47;;;5.97;100.00
3590;BME280;1809;48.470;9.226;2023-03-04T14:09:28;-16337.56;;;6.05;100.00
3590;BME280;1809;48.470;9.226;2023-03-04T14:12:00;-16341.09;;;6.17;100.00
3590;BME280;1809;48.470;9.226;2023-03-04T14:14:49;-16343.47;;;6.26;100.00
3590;BME280;1809;48.470;9.226;2023-03-04T14:17:25;-16344.06;;;6.28;100.00
3590;BME280;1809;48.470;9.226;2023-03-04T14:19:51;-16341.66;;;6.19;100.00
3590;BME280;1809;48.470;9.226;2023-03-04T14:22:24;-16332.94;;;5.88;100.00
3590;BME280;1809;48.470;9.226;2023-03-04T14:25:03;-16317.31;;;5.32;100.00
3590;BME280;1809;48.470;9.226;2023-03-04T14:27:30;-16316.59;;;5.29;100.00
3590;BME280;1809;48.470;9.226;2023-03-04T14:29:59;-16317.16;;;5.31;100.00
3590;BME280;1809;48.470;9.226;2023-03-04T14:32:25;-16331.09;;;5.81;100.00
3590;BME280;1809;48.470;9.226;2023-03-04T14:35:00;-16331.66;;;5.83;100.00
3590;BME280;1809;48.470;9.226;2023-03-04T14:37:36;-16336.59;;;6.01;100.00
3590;BME280;1809;48.470;9.226;2023-03-04T14:40:05;-16336.03;;;5.99;100.00
3590;BME280;1809;48.470;9.226;2023-03-04T14:42:38;-16332.94;;;5.88;100.00
3590;BME280;1809;48.470;9.226;2023-03-04T14:45:05;-16330.13;;;5.78;100.00
3590;BME280;1809;48.470;9.226;2023-03-04T14:47:34;-16320.84;;;5.45;100.00
3590;BME280;1809;48.470;9.226;2023-03-04T14:50:10;-16311.25;;;5.10;100.00
3590;BME280;1809;48.470;9.226;2023-03-04T14:52:39;-16306.34;;;4.93;100.00
3590;BME280;1809;48.470;9.226;2023-03-04T14:57:46;-16302.53;;;4.79;100.00